sensor_id;sensor_type;location;lat;lon;timestamp;temperature;humidity
66144;SHT31;52947;50.842;6.084;2023-01-19T00:01:39;1.09;86.70
66144;SHT31;52947;50.842;6.084;2023-01-19T00:04:07;1.13;86.65
66144;SHT31;52947;50.842;6.084;2023-01-19T00:06:35;1.15;86.56
66144;SHT31;52947;50.842;6.084;2023-01-19T00:09:02;1.20;86.47
66144;SHT31;52947;50.842;6.084;2023-01-19T00:11:30;1.24;86.34
66144;SHT31;52947;50.842;6.084;2023-01-19T00:13:58;1.23;86.24
66144;SHT31;52947;50.842;6.084;2023-01-19T00:16:27;1.27;86.06
66144;SHT31;52947;50.842;6.084;2023-01-19T00:18:55;1.30;86.03
66144;SHT31;52947;50.842;6.084;2023-01-19T00:21:23;1.30;85.84
66144;SHT31;52947;50.842;6.084;2023-01-19T00:23:50;1.30;85.80
66144;SHT31;52947;50.842;6.084;2023-01-19T00:26:21;1.31;85.86
66144;SHT31;52947;50.842;6.084;2023-01-19T00:28:49;1.39;86.35
66144;SHT31;52947;50.842;6.084;2023-01-19T00:31:18;1.37;86.46
66144;SHT31;52947;50.842;6.084;2023-01-19T00:33:49;1.30;86.17
66144;SHT31;52947;50.842;6.084;2023-01-19T00:36:18;1.26;86.48
66144;SHT31;52947;50.842;6.084;2023-01-19T00:38:46;1.24;86.34
66144;SHT31;52947;50.842;6.084;2023-01-19T00:41:14;1.19;86.55
66144;SHT31;52947;50.842;6.084;2023-01-19T00:43:42;1.15;86.46
66144;SHT31;52947;50.842;6.084;2023-01-19T00:46:09;1.19;86.48
66144;SHT31;52947;50.842;6.084;2023-01-19T00:48:37;1.15;86.79
66144;SHT31;52947;50.842;6.084;2023-01-19T00:51:06;1.09;86.49
66144;SHT31;52947;50.842;6.084;2023-01-19T00:53:34;1.10;86.63
66144;SHT31;52947;50.842;6.084;2023-01-19T00:56:01;0.97;86.46
66144;SHT31;52947;50.842;6.084;2023-01-19T00:58:29;1.00;87.35
66144;SHT31;52947;50.842;6.084;2023-01-19T01:00:57;0.97;86.84
66144;SHT31;52947;50.842;6.084;2023-01-19T01:03:29;0.95;87.09
66144;SHT31;52947;50.842;6.084;2023-01-19T01:05:57;1.03;87.06
66144;SHT31;52947;50.842;6.084;2023-01-19T01:08:26;0.99;86.65
66144;SHT31;52947;50.842;6.084;2023-01-19T01:10:54;1.01;87.12
66144;SHT31;52947;50.842;6.084;2023-01-19T01:13:22;0.96;86.74
66144;SHT31;52947;50.842;6.084;2023-01-19T01:15:54;0.97;87.10
66144;SHT31;52947;50.842;6.084;2023-01-19T01:18:23;1.00;86.81
66144;SHT31;52947;50.842;6.084;2023-01-19T01:20:51;1.06;86.75
66144;SHT31;52947;50.842;6.084;2023-01-19T01:23:21;1.07;86.76
66144;SHT31;52947;50.842;6.084;2023-01-19T01:25:51;1.03;86.77
66144;SHT31;52947;50.842;6.084;2023-01-19T01:28:19;1.03;86.67
66144;SHT31;52947;50.842;6.084;2023-01-19T01:30:47;0.96;86.69
66144;SHT31;52947;50.842;6.084;2023-01-19T01:33:14;0.99;86.67
66144;SHT31;52947;50.842;6.084;2023-01-19T01:36:02;0.93;86.83
66144;SHT31;52947;50.842;6.084;2023-01-19T01:38:30;0.96;86.59
66144;SHT31;52947;50.842;6.084;2023-01-19T01:41:00;0.95;86.97
66144;SHT31;52947;50.842;6.084;2023-01-19T01:43:41;0.93;87.04
66144;SHT31;52947;50.842;6.084;2023-01-19T01:46:10;0.90;87.11
66144;SHT31;52947;50.842;6.084;2023-01-19T01:48:42;0.88;87.24
66144;SHT31;52947;50.842;6.084;2023-01-19T01:51:14;0.78;87.76
66144;SHT31;52947;50.842;6.084;2023-01-19T01:54:06;0.79;87.40
66144;SHT31;52947;50.842;6.084;2023-01-19T01:56:38;0.75;87.36
66144;SHT31;52947;50.842;6.084;2023-01-19T01:59:08;0.73;87.88
66144;SHT31;52947;50.842;6.084;2023-01-19T02:01:38;0.69;87.65
66144;SHT31;52947;50.842;6.084;2023-01-19T02:04:25;0.64;87.76
66144;SHT31;52947;50.842;6.084;2023-01-19T02:06:55;0.62;87.86
66144;SHT31;52947;50.842;6.084;2023-01-19T02:09:41;0.69;87.67
66144;SHT31;52947;50.842;6.084;2023-01-19T02:12:28;0.70;88.15
66144;SHT31;52947;50.842;6.084;2023-01-19T02:15:15;0.68;87.82
66144;SHT31;52947;50.842;6.084;2023-01-19T02:17:42;0.65;87.83
66144;SHT31;52947;50.842;6.084;2023-01-19T02:20:11;0.61;87.68
66144;SHT31;52947;50.842;6.084;2023-01-19T02:22:45;0.62;87.86
66144;SHT31;52947;50.842;6.084;2023-01-19T02:25:17;0.66;88.29
66144;SHT31;52947;50.842;6.084;2023-01-19T02:27:47;0.64;87.77
66144;SHT31;52947;50.842;6.084;2023-01-19T02:30:16;0.68;88.05
66144;SHT31;52947;50.842;6.084;2023-01-19T02:32:44;0.68;87.68
66144;SHT31;52947;50.842;6.084;2023-01-19T02:35:12;0.65;87.87
66144;SHT31;52947;50.842;6.084;2023-01-19T02:37:41;0.72;87.66
66144;SHT31;52947;50.842;6.084;2023-01-19T02:40:12;0.64;87.83
66144;SHT31;52947;50.842;6.084;2023-01-19T02:42:44;0.64;87.60
66144;SHT31;52947;50.842;6.084;2023-01-19T02:45:20;0.62;87.59
66144;SHT31;52947;50.842;6.084;2023-01-19T02:47:50;0.55;87.82
66144;SHT31;52947;50.842;6.084;2023-01-19T02:50:43;0.62;87.63
66144;SHT31;52947;50.842;6.084;2023-01-19T02:56:22;0.66;87.59
66144;SHT31;52947;50.842;6.084;2023-01-19T02:58:58;0.68;87.67
66144;SHT31;52947;50.842;6.084;2023-01-19T03:01:36;0.76;87.60
66144;SHT31;52947;50.842;6.084;2023-01-19T03:04:12;0.76;87.61
66144;SHT31;52947;50.842;6.084;2023-01-19T03:06:45;0.78;87.48
66144;SHT31;52947;50.842;6.084;2023-01-19T03:09:22;0.82;87.00
66144;SHT31;52947;50.842;6.084;2023-01-19T03:11:57;0.82;87.14
66144;SHT31;52947;50.842;6.084;2023-01-19T03:14:29;0.88;87.43
66144;SHT31;52947;50.842;6.084;2023-01-19T03:17:03;0.89;87.16
66144;SHT31;52947;50.842;6.084;2023-01-19T03:19:34;0.90;87.04
66144;SHT31;52947;50.842;6.084;2023-01-19T03:22:08;0.86;87.15
66144;SHT31;52947;50.842;6.084;2023-01-19T03:24:40;0.89;87.38
66144;SHT31;52947;50.842;6.084;2023-01-19T03:27:11;0.92;87.07
66144;SHT31;52947;50.842;6.084;2023-01-19T03:29:45;0.95;87.43
66144;SHT31;52947;50.842;6.084;2023-01-19T03:32:18;1.00;87.24
66144;SHT31;52947;50.842;6.084;2023-01-19T03:34:49;1.03;86.75
66144;SHT31;52947;50.842;6.084;2023-01-19T03:37:18;1.03;86.39
66144;SHT31;52947;50.842;6.084;2023-01-19T03:39:47;1.10;86.30
66144;SHT31;52947;50.842;6.084;2023-01-19T03:42:15;1.16;85.94
66144;SHT31;52947;50.842;6.084;2023-01-19T03:44:46;1.13;86.00
66144;SHT31;52947;50.842;6.084;2023-01-19T03:47:16;1.17;86.15
66144;SHT31;52947;50.842;6.084;2023-01-19T03:49:46;1.22;86.11
66144;SHT31;52947;50.842;6.084;2023-01-19T03:52:14;1.10;86.23
66144;SHT31;52947;50.842;6.084;2023-01-19T03:54:42;1.09;86.37
66144;SHT31;52947;50.842;6.084;2023-01-19T03:57:10;1.03;86.50
66144;SHT31;52947;50.842;6.084;2023-01-19T03:59:38;1.07;86.52
66144;SHT31;52947;50.842;6.084;2023-01-19T04:02:07;1.09;86.47
66144;SHT31;52947;50.842;6.084;2023-01-19T04:04:35;1.12;86.24
66144;SHT31;52947;50.842;6.084;2023-01-19T04:07:03;1.12;86.28
66144;SHT31;52947;50.842;6.084;2023-01-19T04:09:31;1.12;86.20
66144;SHT31;52947;50.842;6.084;2023-01-19T04:11:59;1.16;86.39
66144;SHT31;52947;50.842;6.084;2023-01-19T04:14:27;1.15;86.25
66144;SHT31;52947;50.842;6.084;2023-01-19T04:16:55;1.17;86.37
66144;SHT31;52947;50.842;6.084;2023-01-19T04:19:24;1.19;86.30
66144;SHT31;52947;50.842;6.084;2023-01-19T04:21:52;1.19;86.18
66144;SHT31;52947;50.842;6.084;2023-01-19T04:24:20;1.19;86.20
66144;SHT31;52947;50.842;6.084;2023-01-19T04:26:50;1.29;86.13
66144;SHT31;52947;50.842;6.084;2023-01-19T04:29:18;1.31;86.13
66144;SHT31;52947;50.842;6.084;2023-01-19T04:31:45;1.30;86.07
66144;SHT31;52947;50.842;6.084;2023-01-19T04:34:13;1.30;85.86
66144;SHT31;52947;50.842;6.084;2023-01-19T04:36:42;1.34;86.21
66144;SHT31;52947;50.842;6.084;2023-01-19T04:39:12;1.36;86.34
66144;SHT31;52947;50.842;6.084;2023-01-19T04:41:39;1.43;85.88
66144;SHT31;52947;50.842;6.084;2023-01-19T04:44:07;1.43;85.50
66144;SHT31;52947;50.842;6.084;2023-01-19T04:46:35;1.40;85.80
66144;SHT31;52947;50.842;6.084;2023-01-19T04:49:03;1.44;85.81
66144;SHT31;52947;50.842;6.084;2023-01-19T04:51:31;1.50;85.90
66144;SHT31;52947;50.842;6.084;2023-01-19T04:54:01;1.52;85.48
66144;SHT31;52947;50.842;6.084;2023-01-19T04:56:29;1.52;85.81
66144;SHT31;52947;50.842;6.084;2023-01-19T04:58:57;1.52;85.38
66144;SHT31;52947;50.842;6.084;2023-01-19T05:01:25;1.48;85.72
66144;SHT31;52947;50.842;6.084;2023-01-19T05:03:53;1.51;85.81
66144;SHT31;52947;50.842;6.084;2023-01-19T05:06:20;1.55;86.30
66144;SHT31;52947;50.842;6.084;2023-01-19T05:08:48;1.61;86.21
66144;SHT31;52947;50.842;6.084;2023-01-19T05:11:17;1.51;86.10
66144;SHT31;52947;50.842;6.084;2023-01-19T05:13:45;1.51;86.59
66144;SHT31;52947;50.842;6.084;2023-01-19T05:16:15;1.52;86.85
66144;SHT31;52947;50.842;6.084;2023-01-19T05:18:43;1.47;87.23
66144;SHT31;52947;50.842;6.084;2023-01-19T05:21:10;1.52;87.40
66144;SHT31;52947;50.842;6.084;2023-01-19T05:23:38;1.50;87.95
66144;SHT31;52947;50.842;6.084;2023-01-19T05:26:07;1.41;88.38
66144;SHT31;52947;50.842;6.084;2023-01-19T05:28:37;1.31;88.56
66144;SHT31;52947;50.842;6.084;2023-01-19T05:31:05;1.24;89.07
66144;SHT31;52947;50.842;6.084;2023-01-19T05:33:33;1.26;89.60
66144;SHT31;52947;50.842;6.084;2023-01-19T05:36:00;1.34;89.72
66144;SHT31;52947;50.842;6.084;2023-01-19T05:38:29;1.34;89.39
66144;SHT31;52947;50.842;6.084;2023-01-19T05:41:01;1.30;89.50
66144;SHT31;52947;50.842;6.084;2023-01-19T05:43:29;1.33;89.95
66144;SHT31;52947;50.842;6.084;2023-01-19T05:45:58;1.24;90.22
66144;SHT31;52947;50.842;6.084;2023-01-19T05:48:26;1.20;90.69
66144;SHT31;52947;50.842;6.084;2023-01-19T05:50:56;1.15;90.72
66144;SHT31;52947;50.842;6.084;2023-01-19T05:53:25;1.03;91.15
66144;SHT31;52947;50.842;6.084;2023-01-19T05:55:58;1.00;91.07
66144;SHT31;52947;50.842;6.084;2023-01-19T05:58:26;0.95;91.13
66144;SHT31;52947;50.842;6.084;2023-01-19T06:00:54;0.96;90.93
66144;SHT31;52947;50.842;6.084;2023-01-19T06:03:23;1.00;91.25
66144;SHT31;52947;50.842;6.084;2023-01-19T06:05:51;0.97;91.07
66144;SHT31;52947;50.842;6.084;2023-01-19T06:08:19;0.95;91.38
66144;SHT31;52947;50.842;6.084;2023-01-19T06:10:46;0.97;91.45
66144;SHT31;52947;50.842;6.084;2023-01-19T06:13:14;0.99;91.58
66144;SHT31;52947;50.842;6.084;2023-01-19T06:15:42;0.99;91.22
66144;SHT31;52947;50.842;6.084;2023-01-19T06:18:10;1.00;91.25
66144;SHT31;52947;50.842;6.084;2023-01-19T06:20:39;1.04;91.34
66144;SHT31;52947;50.842;6.084;2023-01-19T06:23:07;1.07;91.18
66144;SHT31;52947;50.842;6.084;2023-01-19T06:25:36;1.07;91.46
66144;SHT31;52947;50.842;6.084;2023-01-19T06:28:04;1.09;91.19
66144;SHT31;52947;50.842;6.084;2023-01-19T06:30:31;1.06;91.40
66144;SHT31;52947;50.842;6.084;2023-01-19T06:32:59;1.07;91.26
66144;SHT31;52947;50.842;6.084;2023-01-19T06:35:28;1.07;91.30
66144;SHT31;52947;50.842;6.084;2023-01-19T06:37:57;1.13;91.68
66144;SHT31;52947;50.842;6.084;2023-01-19T06:40:25;1.13;91.65
66144;SHT31;52947;50.842;6.084;2023-01-19T06:42:53;1.13;91.18
66144;SHT31;52947;50.842;6.084;2023-01-19T06:45:20;1.15;92.10
66144;SHT31;52947;50.842;6.084;2023-01-19T06:47:48;1.26;91.74
66144;SHT31;52947;50.842;6.084;2023-01-19T06:50:16;1.33;91.67
66144;SHT31;52947;50.842;6.084;2023-01-19T06:52:44;1.39;91.29
66144;SHT31;52947;50.842;6.084;2023-01-19T06:55:13;1.44;90.82
66144;SHT31;52947;50.842;6.084;2023-01-19T06:57:41;1.57;91.63
66144;SHT31;52947;50.842;6.084;2023-01-19T07:00:11;1.60;91.53
66144;SHT31;52947;50.842;6.084;2023-01-19T07:02:40;1.58;91.07
66144;SHT31;52947;50.842;6.084;2023-01-19T07:05:09;1.64;91.01
66144;SHT31;52947;50.842;6.084;2023-01-19T07:07:40;1.51;90.68
66144;SHT31;52947;50.842;6.084;2023-01-19T07:10:09;1.39;91.19
66144;SHT31;52947;50.842;6.084;2023-01-19T07:12:39;1.33;91.16
66144;SHT31;52947;50.842;6.084;2023-01-19T07:15:08;1.39;91.61
66144;SHT31;52947;50.842;6.084;2023-01-19T07:17:37;1.27;91.40
66144;SHT31;52947;50.842;6.084;2023-01-19T07:20:06;1.13;91.60
66144;SHT31;52947;50.842;6.084;2023-01-19T07:22:34;1.13;92.42
66144;SHT31;52947;50.842;6.084;2023-01-19T07:25:01;1.13;92.23
66144;SHT31;52947;50.842;6.084;2023-01-19T07:27:30;1.24;92.81
66144;SHT31;52947;50.842;6.084;2023-01-19T07:29:59;1.44;93.29
66144;SHT31;52947;50.842;6.084;2023-01-19T07:32:27;1.39;91.81
66144;SHT31;52947;50.842;6.084;2023-01-19T07:34:55;1.24;91.58
66144;SHT31;52947;50.842;6.084;2023-01-19T07:37:23;1.26;92.10
66144;SHT31;52947;50.842;6.084;2023-01-19T07:39:51;1.13;92.32
66144;SHT31;52947;50.842;6.084;2023-01-19T07:42:18;1.27;93.32
66144;SHT31;52947;50.842;6.084;2023-01-19T07:44:47;1.23;92.45
66144;SHT31;52947;50.842;6.084;2023-01-19T07:47:16;1.17;92.36
66144;SHT31;52947;50.842;6.084;2023-01-19T07:49:44;1.20;92.51
66144;SHT31;52947;50.842;6.084;2023-01-19T07:52:12;1.22;92.34
66144;SHT31;52947;50.842;6.084;2023-01-19T07:54:39;1.19;92.33
66144;SHT31;52947;50.842;6.084;2023-01-19T07:57:07;1.22;92.11
66144;SHT31;52947;50.842;6.084;2023-01-19T07:59:35;1.22;91.97
66144;SHT31;52947;50.842;6.084;2023-01-19T08:02:04;1.26;91.77
66144;SHT31;52947;50.842;6.084;2023-01-19T08:04:34;1.34;91.42
66144;SHT31;52947;50.842;6.084;2023-01-19T08:07:02;1.33;91.17
66144;SHT31;52947;50.842;6.084;2023-01-19T08:09:30;1.44;92.21
66144;SHT31;52947;50.842;6.084;2023-01-19T08:11:58;1.48;90.39
66144;SHT31;52947;50.842;6.084;2023-01-19T08:14:26;1.58;90.48
66144;SHT31;52947;50.842;6.084;2023-01-19T08:16:58;1.47;90.10
66144;SHT31;52947;50.842;6.084;2023-01-19T08:19:25;1.43;90.27
66144;SHT31;52947;50.842;6.084;2023-01-19T08:21:55;1.44;90.54
66144;SHT31;52947;50.842;6.084;2023-01-19T08:24:24;1.41;90.96
66144;SHT31;52947;50.842;6.084;2023-01-19T08:26:57;1.52;91.10
66144;SHT31;52947;50.842;6.084;2023-01-19T08:29:25;1.51;90.17
66144;SHT31;52947;50.842;6.084;2023-01-19T08:31:56;1.67;90.68
66144;SHT31;52947;50.842;6.084;2023-01-19T08:34:29;1.65;90.21
66144;SHT31;52947;50.842;6.084;2023-01-19T08:36:58;1.57;89.86
66144;SHT31;52947;50.842;6.084;2023-01-19T08:39:26;1.62;90.43
66144;SHT31;52947;50.842;6.084;2023-01-19T08:41:54;1.68;89.92
66144;SHT31;52947;50.842;6.084;2023-01-19T08:44:22;1.60;90.06
66144;SHT31;52947;50.842;6.084;2023-01-19T08:46:50;1.62;89.93
66144;SHT31;52947;50.842;6.084;2023-01-19T08:49:17;1.62;89.77
66144;SHT31;52947;50.842;6.084;2023-01-19T08:51:46;1.64;89.73
66144;SHT31;52947;50.842;6.084;2023-01-19T08:54:16;1.67;89.58
66144;SHT31;52947;50.842;6.084;2023-01-19T08:56:44;1.70;89.66
66144;SHT31;52947;50.842;6.084;2023-01-19T08:59:12;1.68;89.94
66144;SHT31;52947;50.842;6.084;2023-01-19T09:01:40;1.70;89.76
66144;SHT31;52947;50.842;6.084;2023-01-19T09:04:08;1.70;89.78
66144;SHT31;52947;50.842;6.084;2023-01-19T09:06:35;1.67;89.74
66144;SHT31;52947;50.842;6.084;2023-01-19T09:09:03;1.72;89.78
66144;SHT31;52947;50.842;6.084;2023-01-19T09:11:32;1.71;89.64
66144;SHT31;52947;50.842;6.084;2023-01-19T09:14:00;1.68;89.44
66144;SHT31;52947;50.842;6.084;2023-01-19T09:16:28;1.79;89.89
66144;SHT31;52947;50.842;6.084;2023-01-19T09:18:56;1.86;89.47
66144;SHT31;52947;50.842;6.084;2023-01-19T09:21:24;1.95;89.34
66144;SHT31;52947;50.842;6.084;2023-01-19T09:23:52;1.98;88.87
66144;SHT31;52947;50.842;6.084;2023-01-19T09:26:20;2.11;89.84
66144;SHT31;52947;50.842;6.084;2023-01-19T09:28:50;2.23;89.12
66144;SHT31;52947;50.842;6.084;2023-01-19T09:31:18;2.30;88.33
66144;SHT31;52947;50.842;6.084;2023-01-19T09:33:47;2.30;88.24
66144;SHT31;52947;50.842;6.084;2023-01-19T09:36:14;2.32;88.57
66144;SHT31;52947;50.842;6.084;2023-01-19T09:38:42;2.22;88.28
66144;SHT31;52947;50.842;6.084;2023-01-19T09:41:15;2.12;88.83
66144;SHT31;52947;50.842;6.084;2023-01-19T09:43:45;2.02;88.84
66144;SHT31;52947;50.842;6.084;2023-01-19T09:46:18;2.05;88.98
66144;SHT31;52947;50.842;6.084;2023-01-19T09:48:50;2.09;89.14
66144;SHT31;52947;50.842;6.084;2023-01-19T09:51:21;2.08;89.09
66144;SHT31;52947;50.842;6.084;2023-01-19T09:53:54;2.09;89.03
66144;SHT31;52947;50.842;6.084;2023-01-19T09:56:23;2.05;89.27
66144;SHT31;52947;50.842;6.084;2023-01-19T09:58:51;2.09;89.43
66144;SHT31;52947;50.842;6.084;2023-01-19T10:01:33;2.16;88.80
66144;SHT31;52947;50.842;6.084;2023-01-19T10:04:28;2.36;88.42
66144;SHT31;52947;50.842;6.084;2023-01-19T10:07:04;2.52;88.02
66144;SHT31;52947;50.842;6.084;2023-01-19T10:09:38;2.65;88.18
66144;SHT31;52947;50.842;6.084;2023-01-19T10:12:17;2.79;87.06
66144;SHT31;52947;50.842;6.084;2023-01-19T10:14:54;2.73;87.30
66144;SHT31;52947;50.842;6.084;2023-01-19T10:17:36;2.57;87.03
66144;SHT31;52947;50.842;6.084;2023-01-19T10:20:12;2.49;87.21
66144;SHT31;52947;50.842;6.084;2023-01-19T10:22:42;2.53;87.24
66144;SHT31;52947;50.842;6.084;2023-01-19T10:25:16;2.52;87.39
66144;SHT31;52947;50.842;6.084;2023-01-19T10:27:45;2.56;87.17
66144;SHT31;52947;50.842;6.084;2023-01-19T10:30:17;2.49;87.35
66144;SHT31;52947;50.842;6.084;2023-01-19T10:32:50;2.39;87.58
66144;SHT31;52947;50.842;6.084;2023-01-19T10:35:20;2.39;87.74
66144;SHT31;52947;50.842;6.084;2023-01-19T10:37:51;2.32;87.89
66144;SHT31;52947;50.842;6.084;2023-01-19T10:40:27;2.30;87.91
66144;SHT31;52947;50.842;6.084;2023-01-19T10:43:00;2.36;87.94
66144;SHT31;52947;50.842;6.084;2023-01-19T10:45:30;2.34;87.81
66144;SHT31;52947;50.842;6.084;2023-01-19T10:48:04;2.39;87.72
66144;SHT31;52947;50.842;6.084;2023-01-19T10:50:36;2.34;87.85
66144;SHT31;52947;50.842;6.084;2023-01-19T10:53:05;2.39;87.86
66144;SHT31;52947;50.842;6.084;2023-01-19T10:55:45;2.37;88.22
66144;SHT31;52947;50.842;6.084;2023-01-19T10:58:26;2.43;87.66
66144;SHT31;52947;50.842;6.084;2023-01-19T11:00:54;2.33;87.89
66144;SHT31;52947;50.842;6.084;2023-01-19T11:03:26;2.26;88.22
66144;SHT31;52947;50.842;6.084;2023-01-19T11:06:20;2.28;88.32
66144;SHT31;52947;50.842;6.084;2023-01-19T11:08:50;2.33;88.06
66144;SHT31;52947;50.842;6.084;2023-01-19T11:11:20;2.34;88.11
66144;SHT31;52947;50.842;6.084;2023-01-19T11:14:03;2.36;87.96
66144;SHT31;52947;50.842;6.084;2023-01-19T11:16:34;2.32;88.25
66144;SHT31;52947;50.842;6.084;2023-01-19T11:19:16;2.33;88.20
66144;SHT31;52947;50.842;6.084;2023-01-19T11:21:45;2.32;88.08
66144;SHT31;52947;50.842;6.084;2023-01-19T11:24:13;2.36;88.37
66144;SHT31;52947;50.842;6.084;2023-01-19T11:26:44;2.39;88.23
66144;SHT31;52947;50.842;6.084;2023-01-19T11:29:16;2.42;87.99
66144;SHT31;52947;50.842;6.084;2023-01-19T11:31:46;2.40;88.13
66144;SHT31;52947;50.842;6.084;2023-01-19T11:34:30;2.39;88.14
66144;SHT31;52947;50.842;6.084;2023-01-19T11:37:01;2.39;88.28
66144;SHT31;52947;50.842;6.084;2023-01-19T11:39:30;2.42;87.89
66144;SHT31;52947;50.842;6.084;2023-01-19T11:42:00;2.37;88.00
66144;SHT31;52947;50.842;6.084;2023-01-19T11:44:31;2.43;87.89
66144;SHT31;52947;50.842;6.084;2023-01-19T11:47:01;2.43;88.08
66144;SHT31;52947;50.842;6.084;2023-01-19T11:49:40;2.40;88.23
66144;SHT31;52947;50.842;6.084;2023-01-19T11:52:20;2.46;87.98
66144;SHT31;52947;50.842;6.084;2023-01-19T11:54:53;2.43;87.78
66144;SHT31;52947;50.842;6.084;2023-01-19T11:57:22;2.39;88.02
66144;SHT31;52947;50.842;6.084;2023-01-19T11:59:51;2.33;87.95
66144;SHT31;52947;50.842;6.084;2023-01-19T12:02:25;2.32;88.09
66144;SHT31;52947;50.842;6.084;2023-01-19T12:04:57;2.33;88.37
66144;SHT31;52947;50.842;6.084;2023-01-19T12:07:29;2.34;87.84
66144;SHT31;52947;50.842;6.084;2023-01-19T12:10:10;2.30;87.92
66144;SHT31;52947;50.842;6.084;2023-01-19T12:12:45;2.26;88.15
66144;SHT31;52947;50.842;6.084;2023-01-19T12:15:17;2.28;88.07
66144;SHT31;52947;50.842;6.084;2023-01-19T12:17:49;2.30;88.11
66144;SHT31;52947;50.842;6.084;2023-01-19T12:20:26;2.42;88.12
66144;SHT31;52947;50.842;6.084;2023-01-19T12:23:01;2.52;87.75
66144;SHT31;52947;50.842;6.084;2023-01-19T12:25:45;2.53;87.49
66144;SHT31;52947;50.842;6.084;2023-01-19T12:28:15;2.53;87.42
66144;SHT31;52947;50.842;6.084;2023-01-19T12:30:44;2.53;87.40
66144;SHT31;52947;50.842;6.084;2023-01-19T12:33:19;2.65;87.44
66144;SHT31;52947;50.842;6.084;2023-01-19T12:35:56;2.73;86.79
66144;SHT31;52947;50.842;6.084;2023-01-19T12:38:44;2.76;86.55
66144;SHT31;52947;50.842;6.084;2023-01-19T12:41:27;2.73;86.40
66144;SHT31;52947;50.842;6.084;2023-01-19T12:44:23;2.77;86.08
66144;SHT31;52947;50.842;6.084;2023-01-19T12:46:54;2.79;85.90
66144;SHT31;52947;50.842;6.084;2023-01-19T12:49:29;2.81;85.92
66144;SHT31;52947;50.842;6.084;2023-01-19T12:52:21;2.88;85.79
66144;SHT31;52947;50.842;6.084;2023-01-19T12:54:55;2.91;85.59
66144;SHT31;52947;50.842;6.084;2023-01-19T12:57:26;2.93;85.61
66144;SHT31;52947;50.842;6.084;2023-01-19T12:59:58;2.98;85.29
66144;SHT31;52947;50.842;6.084;2023-01-19T13:02:50;3.12;84.35
66144;SHT31;52947;50.842;6.084;2023-01-19T13:05:23;3.12;84.35
66144;SHT31;52947;50.842;6.084;2023-01-19T13:08:21;3.14;84.15
66144;SHT31;52947;50.842;6.084;2023-01-19T13:17:03;3.00;84.24
66144;SHT31;52947;50.842;6.084;2023-01-19T13:19:46;2.97;84.59
66144;SHT31;52947;50.842;6.084;2023-01-19T13:25:27;2.84;84.39
66144;SHT31;52947;50.842;6.084;2023-01-19T13:27:56;2.83;84.57
66144;SHT31;52947;50.842;6.084;2023-01-19T13:30:26;2.80;84.65
66144;SHT31;52947;50.842;6.084;2023-01-19T13:32:56;2.85;84.63
66144;SHT31;52947;50.842;6.084;2023-01-19T13:35:27;2.81;84.15
66144;SHT31;52947;50.842;6.084;2023-01-19T13:37:57;2.84;84.60
66144;SHT31;52947;50.842;6.084;2023-01-19T13:40:32;2.71;84.14
66144;SHT31;52947;50.842;6.084;2023-01-19T13:43:06;2.74;84.55
66144;SHT31;52947;50.842;6.084;2023-01-19T13:45:39;2.74;84.51
66144;SHT31;52947;50.842;6.084;2023-01-19T13:48:10;2.71;84.77
66144;SHT31;52947;50.842;6.084;2023-01-19T13:50:41;2.73;84.33
66144;SHT31;52947;50.842;6.084;2023-01-19T13:53:16;2.77;84.63
66144;SHT31;52947;50.842;6.084;2023-01-19T13:55:47;2.73;84.39
66144;SHT31;52947;50.842;6.084;2023-01-19T13:58:19;2.80;84.56
66144;SHT31;52947;50.842;6.084;2023-01-19T14:00:47;2.71;84.25
66144;SHT31;52947;50.842;6.084;2023-01-19T14:03:17;2.67;84.13
66144;SHT31;52947;50.842;6.084;2023-01-19T14:05:50;2.57;84.49
66144;SHT31;52947;50.842;6.084;2023-01-19T14:08:18;2.56;84.85
66144;SHT31;52947;50.842;6.084;2023-01-19T14:10:59;2.54;84.91
66144;SHT31;52947;50.842;6.084;2023-01-19T14:13:28;2.57;85.14
66144;SHT31;52947;50.842;6.084;2023-01-19T14:15:57;2.54;84.54
66144;SHT31;52947;50.842;6.084;2023-01-19T14:18:27;2.56;84.80
66144;SHT31;52947;50.842;6.084;2023-01-19T14:20:58;2.57;84.77
66144;SHT31;52947;50.842;6.084;2023-01-19T14:23:41;2.57;84.84
66144;SHT31;52947;50.842;6.084;2023-01-19T14:26:39;2.60;84.39
66144;SHT31;52947;50.842;6.084;2023-01-19T14:29:25;2.65;84.75
66144;SHT31;52947;50.842;6.084;2023-01-19T14:32:09;2.74;84.36
66144;SHT31;52947;50.842;6.084;2023-01-19T14:34:39;2.70;84.44
66144;SHT31;52947;50.842;6.084;2023-01-19T14:39:59;2.60;84.75
66144;SHT31;52947;50.842;6.084;2023-01-19T14:42:33;2.65;84.89
66144;SHT31;52947;50.842;6.084;2023-01-19T14:45:04;2.70;84.76
66144;SHT31;52947;50.842;6.084;2023-01-19T14:47:36;2.73;84.44
66144;SHT31;52947;50.842;6.084;2023-01-19T14:50:08;2.73;84.34
66144;SHT31;52947;50.842;6.084;2023-01-19T14:52:49;2.64;83.85
66144;SHT31;52947;50.842;6.084;2023-01-19T14:55:20;2.71;83.84
66144;SHT31;52947;50.842;6.084;2023-01-19T14:57:52;2.73;83.67
66144;SHT31;52947;50.842;6.084;2023-01-19T15:00:21;2.70;83.87
66144;SHT31;52947;50.842;6.084;2023-01-19T15:02:49;2.63;83.62
66144;SHT31;52947;50.842;6.084;2023-01-19T15:05:16;2.46;83.62
66144;SHT31;52947;50.842;6.084;2023-01-19T15:07:45;2.36;83.83
66144;SHT31;52947;50.842;6.084;2023-01-19T15:10:17;2.29;83.95
66144;SHT31;52947;50.842;6.084;2023-01-19T15:12:46;2.25;83.86
66144;SHT31;52947;50.842;6.084;2023-01-19T15:15:21;2.21;83.95
66144;SHT31;52947;50.842;6.084;2023-01-19T15:17:51;2.13;83.85
66144;SHT31;52947;50.842;6.084;2023-01-19T15:20:21;2.13;83.54
66144;SHT31;52947;50.842;6.084;2023-01-19T15:22:49;2.11;83.45
66144;SHT31;52947;50.842;6.084;2023-01-19T15:25:19;2.06;83.23
66144;SHT31;52947;50.842;6.084;2023-01-19T15:27:47;2.02;83.24
66144;SHT31;52947;50.842;6.084;2023-01-19T15:30:19;1.95;82.98
66144;SHT31;52947;50.842;6.084;2023-01-19T15:32:48;1.89;83.26
66144;SHT31;52947;50.842;6.084;2023-01-19T15:35:18;1.85;83.30
66144;SHT31;52947;50.842;6.084;2023-01-19T15:37:46;1.78;83.51
66144;SHT31;52947;50.842;6.084;2023-01-19T15:40:16;1.71;83.62
66144;SHT31;52947;50.842;6.084;2023-01-19T15:42:45;1.52;84.31
66144;SHT31;52947;50.842;6.084;2023-01-19T15:45:30;1.44;84.59
66144;SHT31;52947;50.842;6.084;2023-01-19T15:47:58;1.36;84.60
66144;SHT31;52947;50.842;6.084;2023-01-19T15:50:27;1.30;84.80
66144;SHT31;52947;50.842;6.084;2023-01-19T15:52:55;1.37;84.98
66144;SHT31;52947;50.842;6.084;2023-01-19T15:55:23;1.36;84.70
66144;SHT31;52947;50.842;6.084;2023-01-19T15:57:50;1.26;85.28
66144;SHT31;52947;50.842;6.084;2023-01-19T16:00:20;1.41;84.96
66144;SHT31;52947;50.842;6.084;2023-01-19T16:02:48;1.57;84.07
66144;SHT31;52947;50.842;6.084;2023-01-19T16:05:17;1.68;84.14
66144;SHT31;52947;50.842;6.084;2023-01-19T16:07:46;1.77;83.72
66144;SHT31;52947;50.842;6.084;2023-01-19T16:10:14;1.83;83.42
66144;SHT31;52947;50.842;6.084;2023-01-19T16:12:43;1.82;83.60
66144;SHT31;52947;50.842;6.084;2023-01-19T16:15:11;1.86;83.22
66144;SHT31;52947;50.842;6.084;2023-01-19T16:17:40;1.88;83.24
66144;SHT31;52947;50.842;6.084;2023-01-19T16:20:09;1.83;83.45
66144;SHT31;52947;50.842;6.084;2023-01-19T16:22:40;1.91;83.14
66144;SHT31;52947;50.842;6.084;2023-01-19T16:25:08;1.94;83.33